createdAt,value
2023-04-03T00:00:50.423Z,96874.66
2023-04-03T00:03:18.293Z,96864.19
2023-04-03T00:05:46.094Z,96872.06
2023-04-03T00:08:13.741Z,96880.53
2023-04-03T00:10:42.624Z,96873.88
2023-04-03T00:13:11.370Z,96882.75
2023-04-03T00:15:39.609Z,96881.59
2023-04-03T00:18:07.920Z,96883.19
2023-04-03T00:20:36.045Z,96886.63
2023-04-03T00:23:04.349Z,96879.66
2023-04-03T00:25:31.918Z,96885.56
2023-04-03T00:28:01.164Z,96881.88
2023-04-03T00:30:28.673Z,96880.34
2023-04-03T00:32:56.493Z,96885.06
2023-04-03T00:35:25.378Z,96894.69
2023-04-03T00:37:54.013Z,96887.69
2023-04-03T00:40:23.683Z,96887.47
2023-04-03T00:42:53.929Z,96891.34
2023-04-03T00:45:31.682Z,96894.00
2023-04-03T00:48:01.405Z,96891.06
2023-04-03T00:50:31.627Z,96891.25
2023-04-03T00:52:59.815Z,96890.63
2023-04-03T00:55:27.406Z,96893.31
2023-04-03T00:57:56.882Z,96888.41
2023-04-03T01:00:27.036Z,96889.34
2023-04-03T01:02:55.643Z,96886.34
2023-04-03T01:05:24.009Z,96886.81
2023-04-03T01:07:53.113Z,96888.44
2023-04-03T01:10:21.807Z,96892.31
2023-04-03T01:12:51.148Z,96892.06
2023-04-03T01:15:21.087Z,96885.38
2023-04-03T01:17:51.825Z,96891.41
2023-04-03T01:20:42.404Z,96891.34
2023-04-03T01:23:24.451Z,96891.00
2023-04-03T01:25:53.640Z,96881.13
2023-04-03T01:28:24.092Z,96887.00
2023-04-03T01:30:59.626Z,96889.84
2023-04-03T01:33:28.470Z,96894.56
2023-04-03T01:35:56.228Z,96891.91
2023-04-03T01:38:23.828Z,96901.16
2023-04-03T01:40:51.566Z,96900.59
2023-04-03T01:43:19.091Z,96894.22
2023-04-03T01:45:47.402Z,96899.88
2023-04-03T01:48:15.224Z,96901.59
2023-04-03T01:50:44.043Z,96904.78
2023-04-03T01:53:11.527Z,96906.81
2023-04-03T01:55:39.015Z,96906.25
2023-04-03T01:58:06.473Z,96907.22
2023-04-03T02:00:34.208Z,96898.91
2023-04-03T02:03:02.137Z,96910.03
2023-04-03T02:05:29.639Z,96903.91
2023-04-03T02:07:58.469Z,96904.72
2023-04-03T02:10:25.964Z,96911.00
2023-04-03T02:12:53.468Z,96901.34
2023-04-03T02:15:20.995Z,96908.94
2023-04-03T02:17:48.601Z,96904.75
2023-04-03T02:20:16.178Z,96904.50
2023-04-03T02:22:43.916Z,96902.16
2023-04-03T02:25:13.470Z,96902.63
2023-04-03T02:27:40.966Z,96903.47
2023-04-03T02:30:11.553Z,96911.06
2023-04-03T02:32:39.162Z,96913.31
2023-04-03T02:35:07.441Z,96906.53
2023-04-03T02:37:34.932Z,96910.81
2023-04-03T02:40:02.524Z,96908.91
2023-04-03T02:42:31.695Z,96911.31
2023-04-03T02:45:01.282Z,96901.97
2023-04-03T02:47:29.091Z,96902.84
2023-04-03T02:49:56.630Z,96899.59
2023-04-03T02:52:24.230Z,96902.66
2023-04-03T02:54:51.705Z,96906.66
2023-04-03T02:57:20.621Z,96912.16
2023-04-03T02:59:49.467Z,96909.38
2023-04-03T03:02:16.931Z,96905.38
2023-04-03T03:04:44.550Z,96915.19
2023-04-03T03:07:12.096Z,96905.16
2023-04-03T03:09:39.560Z,96908.56
2023-04-03T03:12:07.280Z,96910.34
2023-04-03T03:14:34.791Z,96903.91
2023-04-03T03:17:03.616Z,96907.56
2023-04-03T03:19:31.079Z,96912.06
2023-04-03T03:21:58.850Z,96914.84
2023-04-03T03:24:26.318Z,96918.22
2023-04-03T03:26:53.785Z,96917.50
2023-04-03T03:29:21.510Z,96913.81
2023-04-03T03:31:49.015Z,96911.50
2023-04-03T03:34:17.907Z,96907.09
2023-04-03T03:36:45.775Z,96911.66
2023-04-03T03:39:13.435Z,96912.88
2023-04-03T03:41:40.908Z,96910.84
2023-04-03T03:44:08.397Z,96900.97
2023-04-03T03:46:36.109Z,96909.25
2023-04-03T03:49:03.630Z,96906.41
2023-04-03T03:51:32.466Z,96915.00
2023-04-03T03:53:59.956Z,96906.88
2023-04-03T03:56:27.473Z,96914.22
2023-04-03T03:58:57.067Z,96911.59
2023-04-03T04:01:24.847Z,96914.78
2023-04-03T04:03:52.432Z,96912.34
2023-04-03T04:06:19.985Z,96909.25
2023-04-03T04:08:48.910Z,96913.38
2023-04-03T04:11:16.605Z,96906.50
2023-04-03T04:13:44.065Z,96918.50
2023-04-03T04:16:11.652Z,96925.13
2023-04-03T04:18:39.209Z,96915.50
2023-04-03T04:21:06.788Z,96922.44
2023-04-03T04:23:34.278Z,96928.13
2023-04-03T04:26:03.082Z,96923.00
2023-04-03T04:28:30.702Z,96919.88
2023-04-03T04:30:58.195Z,96924.19
2023-04-03T04:33:26.507Z,96924.03
2023-04-03T04:35:54.149Z,96927.00
2023-04-03T04:38:21.696Z,96925.91
2023-04-03T04:40:49.726Z,96934.66
2023-04-03T04:43:19.047Z,96927.19
2023-04-03T04:45:46.536Z,96927.91
2023-04-03T04:48:14.090Z,96937.16
2023-04-03T04:50:41.581Z,96937.78
2023-04-03T04:53:09.498Z,96943.66
2023-04-03T04:55:37.217Z,96940.25
2023-04-03T04:58:04.849Z,96945.06
2023-04-03T05:00:33.680Z,96947.38
2023-04-03T05:03:01.163Z,96934.31
2023-04-03T05:05:28.638Z,96948.13
2023-04-03T05:07:56.163Z,96940.06
2023-04-03T05:10:23.789Z,96935.44
2023-04-03T05:12:51.301Z,96936.81
2023-04-03T05:15:18.792Z,96931.81
2023-04-03T05:17:47.634Z,96938.84
2023-04-03T05:20:15.456Z,96941.19
2023-04-03T05:22:42.910Z,96941.59
2023-04-03T05:25:11.015Z,96947.19
2023-04-03T05:27:38.494Z,96949.16
2023-04-03T05:30:07.041Z,96946.38
2023-04-03T05:32:34.733Z,96945.31
2023-04-03T05:35:03.643Z,96946.44
2023-04-03T05:37:31.106Z,96950.28
2023-04-03T05:39:58.728Z,96952.59
2023-04-03T05:42:26.400Z,96956.72
2023-04-03T05:44:53.900Z,96954.94
2023-04-03T05:47:21.470Z,96958.78
2023-04-03T05:49:49.418Z,96952.50
2023-04-03T05:52:23.330Z,96947.94
2023-04-03T05:54:51.017Z,96952.84
2023-04-03T05:57:19.010Z,96957.13
2023-04-03T05:59:47.396Z,96956.63
2023-04-03T06:02:16.550Z,96956.22
2023-04-03T06:04:44.294Z,96957.41
2023-04-03T06:07:14.982Z,96958.19
2023-04-03T06:09:44.443Z,96953.13
2023-04-03T06:12:12.250Z,96961.44
2023-04-03T06:14:39.762Z,96958.22
2023-04-03T06:17:07.434Z,96959.16
2023-04-03T06:19:35.440Z,96956.00
2023-04-03T06:22:03.862Z,96963.94
2023-04-03T06:24:31.917Z,96964.59
2023-04-03T06:27:01.150Z,96962.41
2023-04-03T06:29:28.654Z,96967.06
2023-04-03T06:31:56.436Z,96970.00
2023-04-03T06:34:24.064Z,96967.59
2023-04-03T06:36:52.144Z,96971.69
2023-04-03T06:39:23.015Z,96971.69
2023-04-03T06:41:51.030Z,96976.09
2023-04-03T06:44:19.926Z,96970.00
2023-04-03T06:46:47.767Z,96964.59
2023-04-03T06:49:16.029Z,96986.84
2023-04-03T06:51:43.543Z,96985.84
2023-04-03T06:54:11.175Z,96981.97
2023-04-03T06:56:38.733Z,96986.63
2023-04-03T06:59:06.217Z,96990.44
2023-04-03T07:01:35.087Z,96994.78
2023-04-03T07:04:03.169Z,96994.19
2023-04-03T07:06:31.914Z,96990.38
2023-04-03T07:08:59.372Z,96995.19
2023-04-03T07:11:27.211Z,97002.22
2023-04-03T07:13:54.842Z,97004.44
2023-04-03T07:16:22.461Z,97000.47
2023-04-03T07:18:51.875Z,97000.88
2023-04-03T07:21:19.333Z,97011.81
2023-04-03T07:23:46.841Z,97008.66
2023-04-03T07:26:14.602Z,97013.28
2023-04-03T07:28:42.439Z,97007.16
2023-04-03T07:31:14.347Z,97011.16
2023-04-03T07:33:43.580Z,97011.91
2023-04-03T07:36:16.607Z,97013.72
2023-04-03T07:38:44.157Z,97023.38
2023-04-03T07:41:15.929Z,97014.75
2023-04-03T07:43:43.524Z,97021.88
2023-04-03T07:46:11.661Z,97013.41
2023-04-03T07:48:39.253Z,97019.69
2023-04-03T07:51:07.600Z,97024.38
2023-04-03T07:53:36.735Z,97019.03
2023-04-03T07:56:04.542Z,97025.75
2023-04-03T07:58:32.286Z,97024.69
2023-04-03T08:00:59.783Z,97016.53
2023-04-03T08:03:27.544Z,97024.44
2023-04-03T08:05:55.367Z,97027.03
2023-04-03T08:08:24.657Z,97025.88
2023-04-03T08:10:54.647Z,97017.03
2023-04-03T08:13:23.144Z,97022.63
2023-04-03T08:15:50.686Z,97027.56
2023-04-03T08:18:19.344Z,97018.75
2023-04-03T08:20:47.145Z,97023.31
2023-04-03T08:23:14.912Z,97026.06
2023-04-03T08:25:43.637Z,97019.72
2023-04-03T08:28:13.277Z,97009.50
2023-04-03T08:30:41.871Z,97006.28
2023-04-03T08:33:09.494Z,97026.47
2023-04-03T08:35:41.696Z,97029.16
2023-04-03T08:38:10.032Z,97024.91
2023-04-03T08:40:37.538Z,97025.06
2023-04-03T08:43:29.729Z,97032.50
2023-04-03T08:46:00.739Z,97026.66
2023-04-03T08:48:33.005Z,97031.16
2023-04-03T08:51:05.457Z,97038.44
2023-04-03T08:53:37.132Z,97028.78
2023-04-03T08:56:10.181Z,97041.09
2023-04-03T08:58:46.625Z,97033.06
2023-04-03T09:01:21.653Z,97041.94
2023-04-03T09:03:49.221Z,97040.31
2023-04-03T09:06:21.672Z,97032.94
2023-04-03T09:08:55.326Z,97045.88
2023-04-03T09:11:27.646Z,97041.16
2023-04-03T09:14:02.076Z,97044.81
2023-04-03T09:16:40.992Z,97049.84
2023-04-03T09:19:20.647Z,97044.25
2023-04-03T09:21:48.198Z,97039.56
2023-04-03T09:24:18.258Z,97041.59
2023-04-03T09:26:51.419Z,97033.41
2023-04-03T09:29:22.982Z,97040.31
2023-04-03T09:31:52.354Z,97041.00
2023-04-03T09:34:24.362Z,97045.47
2023-04-03T09:36:53.951Z,97044.81
2023-04-03T09:39:23.325Z,97051.91
2023-04-03T09:42:00.423Z,97039.94
2023-04-03T09:44:31.863Z,97039.97
2023-04-03T09:47:00.469Z,97048.72
2023-04-03T09:49:28.238Z,97043.34
2023-04-03T09:51:55.717Z,97036.00
2023-04-03T09:54:36.930Z,97050.38
2023-04-03T09:57:09.925Z,97045.50
2023-04-03T09:59:43.215Z,97057.44
2023-04-03T10:02:27.027Z,97043.22
2023-04-03T10:05:08.395Z,97029.44
2023-04-03T10:07:38.609Z,97036.81
2023-04-03T10:10:20.961Z,97030.47
2023-04-03T10:12:48.841Z,97044.22
2023-04-03T10:15:21.052Z,97044.34
2023-04-03T10:18:00.372Z,97035.34
2023-04-03T10:20:36.333Z,97034.13
2023-04-03T10:23:17.956Z,97013.69
2023-04-03T10:25:57.823Z,97023.69
2023-04-03T10:28:32.948Z,97009.41
2023-04-03T10:31:12.569Z,97016.03
2023-04-03T10:33:53.252Z,97031.47
2023-04-03T10:36:31.012Z,97029.19
2023-04-03T10:39:10.853Z,97028.38
2023-04-03T10:41:49.228Z,97020.50
2023-04-03T10:44:29.723Z,97020.41
2023-04-03T10:47:07.688Z,97010.59
2023-04-03T10:52:24.294Z,97010.16
2023-04-03T10:55:03.056Z,97012.84
2023-04-03T10:57:32.174Z,97009.50
2023-04-03T11:00:03.596Z,97004.72
2023-04-03T11:02:35.013Z,97013.50
2023-04-03T11:05:10.208Z,97015.66
2023-04-03T11:07:42.471Z,96995.84
2023-04-03T11:10:17.914Z,97005.28
2023-04-03T11:12:48.935Z,97001.91
2023-04-03T11:15:18.849Z,96989.53
2023-04-03T11:17:53.535Z,97006.19
2023-04-03T11:20:28.669Z,96996.50
2023-04-03T11:23:02.250Z,96998.13
2023-04-03T11:25:31.712Z,96994.25
2023-04-03T11:28:02.653Z,97000.66
2023-04-03T11:30:35.631Z,96993.44
2023-04-03T11:33:19.246Z,97003.06
2023-04-03T11:35:49.329Z,97000.88
2023-04-03T11:38:23.851Z,96984.25
2023-04-03T11:40:52.160Z,96979.31
2023-04-03T11:43:26.712Z,96978.94
2023-04-03T11:46:01.715Z,96992.75
2023-04-03T11:48:49.861Z,96992.19
2023-04-03T11:51:40.598Z,96983.56
2023-04-03T11:54:47.248Z,96981.78
2023-04-03T11:57:39.993Z,96977.56
2023-04-03T12:00:41.342Z,96989.25
2023-04-03T12:03:53.840Z,96976.69
2023-04-03T12:06:55.759Z,96972.66
2023-04-03T12:09:31.379Z,96968.22
2023-04-03T12:12:01.418Z,96967.09
2023-04-03T12:14:30.758Z,96960.38
2023-04-03T12:17:00.803Z,96963.34
2023-04-03T12:19:42.549Z,96966.00
2023-04-03T12:22:16.140Z,96954.91
2023-04-03T12:24:46.777Z,96953.41
2023-04-03T12:27:36.460Z,96943.91
2023-04-03T12:30:12.798Z,96948.03
2023-04-03T12:32:56.273Z,96948.13
2023-04-03T12:35:34.979Z,96955.53
2023-04-03T12:38:34.449Z,96958.19
2023-04-03T12:41:19.899Z,96949.31
2023-04-03T12:44:01.407Z,96948.03
2023-04-03T12:46:38.395Z,96953.94
2023-04-03T12:49:20.072Z,96948.59
2023-04-03T12:51:48.722Z,96951.50
2023-04-03T12:54:19.725Z,96946.72
2023-04-03T12:56:48.569Z,96948.81
2023-04-03T12:59:18.346Z,96927.91
2023-04-03T13:01:46.425Z,96917.81
2023-04-03T13:04:14.354Z,96921.88
2023-04-03T13:06:43.466Z,96919.59
2023-04-03T13:09:22.643Z,96933.78
2023-04-03T13:11:56.702Z,96937.25
2023-04-03T13:14:27.106Z,96942.50
2023-04-03T13:16:55.898Z,96930.13
2023-04-03T13:19:27.557Z,96935.72
2023-04-03T13:22:02.025Z,96924.84
2023-04-03T13:24:31.216Z,96929.03
2023-04-03T13:27:00.316Z,96928.28
2023-04-03T13:29:31.952Z,96922.75
2023-04-03T13:32:02.249Z,96930.81
2023-04-03T13:34:32.544Z,96921.22
2023-04-03T13:37:04.235Z,96915.94
2023-04-03T13:39:33.675Z,96913.78
2023-04-03T13:42:16.484Z,96917.16
2023-04-03T13:44:44.306Z,96907.25
2023-04-03T13:47:21.138Z,96907.34
2023-04-03T13:50:02.018Z,96911.94
2023-04-03T13:52:33.498Z,96927.88
2023-04-03T13:55:05.848Z,96919.19
2023-04-03T13:57:36.949Z,96905.56
2023-04-03T14:00:36.466Z,96907.66
2023-04-03T14:03:04.206Z,96906.00
2023-04-03T14:05:31.828Z,96901.38
2023-04-03T14:07:59.897Z,96911.13
2023-04-03T14:10:27.389Z,96914.19
2023-04-03T14:12:56.684Z,96920.03
2023-04-03T14:15:27.099Z,96917.84
2023-04-03T14:17:55.386Z,96914.25
2023-04-03T14:20:25.556Z,96910.22
2023-04-03T14:22:54.620Z,96901.22
2023-04-03T14:25:24.550Z,96911.72
2023-04-03T14:27:54.680Z,96913.25
2023-04-03T14:30:27.622Z,96906.69
2023-04-03T14:32:55.649Z,96910.06
2023-04-03T14:35:23.637Z,96903.22
2023-04-03T14:37:52.616Z,96910.28
2023-04-03T14:40:24.610Z,96899.84
2023-04-03T14:42:52.545Z,96916.47
2023-04-03T14:45:20.320Z,96908.41
2023-04-03T14:47:51.516Z,96919.78
2023-04-03T14:50:21.943Z,96907.19
2023-04-03T14:52:51.041Z,96907.63
2023-04-03T14:55:21.158Z,96891.50
2023-04-03T14:57:48.848Z,96903.50
2023-04-03T15:00:19.072Z,96902.53
2023-04-03T15:02:47.309Z,96912.69
2023-04-03T15:05:17.637Z,96909.81
2023-04-03T15:07:48.813Z,96923.50
2023-04-03T15:10:19.262Z,96926.22
2023-04-03T15:12:47.770Z,96929.41
2023-04-03T15:15:20.638Z,96928.03
2023-04-03T15:17:54.627Z,96921.72
2023-04-03T15:20:25.829Z,96921.50
2023-04-03T15:22:53.587Z,96923.81
2023-04-03T15:25:21.081Z,96921.00
2023-04-03T15:27:48.875Z,96911.63
2023-04-03T15:30:19.273Z,96926.31
2023-04-03T15:32:47.450Z,96928.38
2023-04-03T15:35:15.125Z,96929.09
2023-04-03T15:37:44.050Z,96933.03
2023-04-03T15:40:12.526Z,96932.41
2023-04-03T15:42:41.011Z,96932.06
2023-04-03T15:45:09.968Z,96929.09
2023-04-03T15:47:37.784Z,96931.50
2023-04-03T15:50:06.949Z,96923.53
2023-04-03T15:52:34.597Z,96931.50
2023-04-03T15:55:03.536Z,96929.88
2023-04-03T16:00:03.545Z,96922.56
2023-04-03T16:02:31.195Z,96926.75
2023-04-03T16:04:58.777Z,96925.50
2023-04-03T16:07:26.339Z,96932.03
2023-04-03T16:09:54.057Z,96933.88
2023-04-03T16:12:22.876Z,96944.75
2023-04-03T16:14:50.326Z,96929.81
2023-04-03T16:17:17.839Z,96932.25
2023-04-03T16:19:45.354Z,96940.97
2023-04-03T16:22:12.910Z,96951.13
2023-04-03T16:24:40.453Z,96947.38
2023-04-03T16:27:08.030Z,96946.59
2023-04-03T16:29:37.203Z,96950.38
2023-04-03T16:32:05.101Z,96954.13
2023-04-03T16:34:33.675Z,96956.16
2023-04-03T16:37:01.790Z,96957.72
2023-04-03T16:39:29.353Z,96957.53
2023-04-03T16:41:56.837Z,96964.53
2023-04-03T16:44:24.340Z,96962.84
2023-04-03T16:46:53.203Z,96977.22
2023-04-03T16:49:20.779Z,96971.25
2023-04-03T16:51:50.328Z,96979.41
2023-04-03T16:54:17.806Z,96978.16
2023-04-03T16:56:45.380Z,96983.00
2023-04-03T16:59:12.867Z,96988.31
2023-04-03T17:01:40.495Z,96996.03
2023-04-03T17:04:09.412Z,96988.47
2023-04-03T17:06:36.938Z,96990.34
2023-04-03T17:09:04.735Z,96997.91
2023-04-03T17:11:32.375Z,97001.59
2023-04-03T17:14:00.411Z,97000.22
2023-04-03T17:16:28.555Z,97008.56
2023-04-03T17:18:56.515Z,97012.19
2023-04-03T17:21:25.687Z,96999.16
2023-04-03T17:23:58.336Z,97017.69
2023-04-03T17:26:26.542Z,97021.84
2023-04-03T17:28:54.326Z,97016.81
2023-04-03T17:31:21.921Z,97028.28
2023-04-03T17:33:49.458Z,97016.56
2023-04-03T17:36:16.975Z,97025.31
2023-04-03T17:38:47.188Z,97039.16
2023-04-03T17:41:14.692Z,97036.75
2023-04-03T17:43:42.265Z,97036.75
2023-04-03T17:46:11.619Z,97039.84
2023-04-03T17:48:41.222Z,97041.34
2023-04-03T17:51:10.452Z,97034.56
2023-04-03T17:53:38.185Z,97028.06
2023-04-03T17:56:10.845Z,97042.00
2023-04-03T17:58:38.474Z,97040.31
2023-04-03T18:01:10.997Z,97040.88
2023-04-03T18:03:38.786Z,97049.19
2023-04-03T18:06:08.511Z,97047.41
2023-04-03T18:08:39.585Z,97045.94
2023-04-03T18:11:07.712Z,97040.75
2023-04-03T18:13:37.619Z,97053.56
2023-04-03T18:16:06.014Z,97043.19
2023-04-03T18:18:33.626Z,97054.91
2023-04-03T18:21:01.112Z,97059.03
2023-04-03T18:23:32.361Z,97060.53
2023-04-03T18:26:01.166Z,97059.94
2023-04-03T18:28:30.218Z,97056.56
2023-04-03T18:30:59.397Z,97064.97
2023-04-03T18:33:26.884Z,97060.53
2023-04-03T18:35:54.401Z,97073.41
2023-04-03T18:38:21.873Z,97064.84
2023-04-03T18:40:50.080Z,97064.25
2023-04-03T18:43:17.994Z,97066.88
2023-04-03T18:45:47.067Z,97075.00
2023-04-03T18:48:15.986Z,97079.50
2023-04-03T18:50:43.598Z,97073.78
2023-04-03T18:53:11.327Z,97076.50
2023-04-03T18:55:39.054Z,97076.00
2023-04-03T18:58:06.622Z,97076.38
2023-04-03T19:00:34.114Z,97073.81
2023-04-03T19:03:01.762Z,97076.50
2023-04-03T19:05:31.379Z,97074.03
2023-04-03T19:07:59.426Z,97079.97
2023-04-03T19:10:27.208Z,97074.53
2023-04-03T19:12:54.950Z,97073.88
2023-04-03T19:15:24.324Z,97069.88
2023-04-03T19:17:51.863Z,97078.72
2023-04-03T19:20:20.258Z,97075.25
2023-04-03T19:22:49.086Z,97076.31
2023-04-03T19:25:16.786Z,97072.84
2023-04-03T19:27:44.258Z,97081.09
2023-04-03T19:30:13.248Z,97076.69
2023-04-03T19:32:40.967Z,97077.38
2023-04-03T19:35:09.466Z,97082.84
2023-04-03T19:37:36.941Z,97083.75
2023-04-03T19:40:07.382Z,97076.69
2023-04-03T19:42:36.741Z,97082.50
2023-04-03T19:45:04.665Z,97078.91
2023-04-03T19:47:32.816Z,97082.72
2023-04-03T19:50:00.309Z,97079.66
2023-04-03T19:52:27.892Z,97089.75
2023-04-03T19:54:55.379Z,97081.63
2023-04-03T19:57:24.230Z,97080.69
2023-04-03T19:59:51.715Z,97081.72
2023-04-03T20:02:21.250Z,97088.44
2023-04-03T20:04:48.855Z,97090.97
2023-04-03T20:07:16.504Z,97091.84
2023-04-03T20:09:44.068Z,97086.09
2023-04-03T20:12:12.205Z,97090.31
2023-04-03T20:14:41.028Z,97088.41
2023-04-03T20:17:08.641Z,97084.69
2023-04-03T20:19:36.845Z,97086.94
2023-04-03T20:22:04.427Z,97098.75
2023-04-03T20:24:32.332Z,97088.91
2023-04-03T20:26:59.998Z,97095.56
2023-04-03T20:29:27.745Z,97083.91
2023-04-03T20:31:56.640Z,97085.59
2023-04-03T20:34:24.380Z,97084.78
2023-04-03T20:36:53.045Z,97083.06
2023-04-03T20:39:23.980Z,97085.44
2023-04-03T20:41:51.721Z,97090.06
2023-04-03T20:44:19.718Z,97085.72
2023-04-03T20:46:52.806Z,97089.84
2023-04-03T20:49:22.631Z,97087.03
2023-04-03T20:51:51.117Z,97087.97
2023-04-03T20:54:19.058Z,97085.88
2023-04-03T20:56:49.647Z,97089.78
2023-04-03T20:59:18.375Z,97082.72
2023-04-03T21:01:46.845Z,97080.34
2023-04-03T21:04:19.592Z,97081.66
2023-04-03T21:07:24.536Z,97080.72
2023-04-03T21:10:29.475Z,97082.38
2023-04-03T21:13:34.783Z,97080.44
2023-04-03T21:16:02.867Z,97075.81
2023-04-03T21:18:51.159Z,97077.97
2023-04-03T21:21:20.564Z,97083.94
2023-04-03T21:23:49.373Z,97077.31
2023-04-03T21:26:18.350Z,97085.44
2023-04-03T21:28:46.306Z,97076.28
2023-04-03T21:31:15.060Z,97086.59
2023-04-03T21:33:43.906Z,97076.41
2023-04-03T21:36:11.373Z,97084.53
2023-04-03T21:38:38.879Z,97078.63
2023-04-03T21:41:06.432Z,97080.72
2023-04-03T21:43:33.906Z,97084.75
2023-04-03T21:46:01.890Z,97083.66
2023-04-03T21:48:30.529Z,97080.00
2023-04-03T21:51:06.626Z,97079.47
2023-04-03T21:53:34.441Z,97076.47
2023-04-03T21:56:02.456Z,97084.78
2023-04-03T21:58:31.970Z,97076.03
2023-04-03T22:01:08.664Z,97080.16
2023-04-03T22:03:36.148Z,97075.97
2023-04-03T22:06:05.548Z,97076.63
2023-04-03T22:08:33.604Z,97070.59
2023-04-03T22:11:02.533Z,97076.69
2023-04-03T22:13:30.122Z,97079.38
2023-04-03T22:15:57.742Z,97075.19
2023-04-03T22:18:25.582Z,97077.19
2023-04-03T22:20:53.290Z,97073.31
2023-04-03T22:23:22.951Z,97081.09
2023-04-03T22:26:01.199Z,97081.56
2023-04-03T22:28:28.905Z,97077.13
2023-04-03T22:30:57.061Z,97076.78
2023-04-03T22:33:24.556Z,97070.00
2023-04-03T22:35:52.341Z,97072.13
2023-04-03T22:38:19.830Z,97068.59
2023-04-03T22:40:49.130Z,97071.25
2023-04-03T22:43:16.736Z,97070.03
2023-04-03T22:45:50.811Z,97063.06
2023-04-03T22:48:18.501Z,97061.59
2023-04-03T22:50:46.901Z,97060.84
2023-04-03T22:53:14.372Z,97069.00
2023-04-03T22:55:42.050Z,97060.69
2023-04-03T22:58:10.884Z,97056.56
2023-04-03T23:00:38.488Z,97050.13
2023-04-03T23:03:06.161Z,97052.44
2023-04-03T23:05:33.711Z,97061.81
2023-04-03T23:08:01.367Z,97044.16
2023-04-03T23:10:28.893Z,97061.94
2023-04-03T23:12:56.347Z,97046.50
2023-04-03T23:15:25.128Z,97050.34
2023-04-03T23:17:52.635Z,97048.69
2023-04-03T23:20:20.198Z,97046.91
2023-04-03T23:22:47.663Z,97039.09
2023-04-03T23:25:15.322Z,97054.41
2023-04-03T23:27:42.780Z,97042.09
2023-04-03T23:30:11.478Z,97046.81
2023-04-03T23:32:40.372Z,97049.44
2023-04-03T23:35:08.537Z,97048.72
2023-04-03T23:37:36.279Z,97047.00
2023-04-03T23:40:03.759Z,97038.22
2023-04-03T23:42:31.287Z,97040.78
2023-04-03T23:44:58.765Z,97030.16
2023-04-03T23:47:26.394Z,97030.84
2023-04-03T23:49:55.424Z,97032.50
2023-04-03T23:52:22.914Z,97036.41
2023-04-03T23:54:50.507Z,97031.53
2023-04-03T23:57:17.988Z,97028.28
2023-04-03T23:59:45.476Z,97034.00
